sensor_id;sensor_type;location;lat;lon;timestamp;P1;durP1;ratioP1;P2;durP2;ratioP2
26277;SDS011;14000;52.056;8.510;2023-05-10T00:04:28;20.57;;;13.80;;
26277;SDS011;14000;52.056;8.510;2023-05-10T00:06:54;20.20;;;14.30;;
26277;SDS011;14000;52.056;8.510;2023-05-10T00:09:19;21.23;;;15.20;;
26277;SDS011;14000;52.056;8.510;2023-05-10T00:11:45;21.20;;;14.73;;
26277;SDS011;14000;52.056;8.510;2023-05-10T00:14:11;19.57;;;13.53;;
26277;SDS011;14000;52.056;8.510;2023-05-10T00:16:36;23.00;;;15.23;;
26277;SDS011;14000;52.056;8.510;2023-05-10T00:19:02;22.47;;;15.00;;
26277;SDS011;14000;52.056;8.510;2023-05-10T00:21:28;19.97;;;13.90;;
26277;SDS011;14000;52.056;8.510;2023-05-10T00:23:53;23.77;;;15.87;;
26277;SDS011;14000;52.056;8.510;2023-05-10T00:26:19;25.83;;;17.47;;
26277;SDS011;14000;52.056;8.510;2023-05-10T00:28:45;26.53;;;17.30;;
26277;SDS011;14000;52.056;8.510;2023-05-10T00:31:11;21.73;;;16.03;;
26277;SDS011;14000;52.056;8.510;2023-05-10T00:33:36;22.97;;;15.10;;
26277;SDS011;14000;52.056;8.510;2023-05-10T00:36:02;25.97;;;17.53;;
26277;SDS011;14000;52.056;8.510;2023-05-10T00:38:28;23.17;;;15.00;;
26277;SDS011;14000;52.056;8.510;2023-05-10T00:40:53;22.17;;;15.57;;
26277;SDS011;14000;52.056;8.510;2023-05-10T00:43:19;24.90;;;17.23;;
26277;SDS011;14000;52.056;8.510;2023-05-10T00:45:45;22.73;;;15.90;;
26277;SDS011;14000;52.056;8.510;2023-05-10T00:48:11;22.30;;;15.30;;
26277;SDS011;14000;52.056;8.510;2023-05-10T00:50:37;23.47;;;15.80;;
26277;SDS011;14000;52.056;8.510;2023-05-10T00:53:03;25.27;;;16.60;;
26277;SDS011;14000;52.056;8.510;2023-05-10T00:55:29;25.80;;;16.87;;
26277;SDS011;14000;52.056;8.510;2023-05-10T00:57:56;25.57;;;17.33;;
26277;SDS011;14000;52.056;8.510;2023-05-10T01:00:21;27.00;;;17.93;;
26277;SDS011;14000;52.056;8.510;2023-05-10T01:02:47;23.73;;;16.00;;
26277;SDS011;14000;52.056;8.510;2023-05-10T01:05:13;22.77;;;15.20;;
26277;SDS011;14000;52.056;8.510;2023-05-10T01:07:39;22.60;;;15.20;;
26277;SDS011;14000;52.056;8.510;2023-05-10T01:10:05;22.10;;;15.33;;
26277;SDS011;14000;52.056;8.510;2023-05-10T01:12:32;24.27;;;16.10;;
26277;SDS011;14000;52.056;8.510;2023-05-10T01:15:02;23.97;;;16.40;;
26277;SDS011;14000;52.056;8.510;2023-05-10T01:17:29;24.93;;;16.97;;
26277;SDS011;14000;52.056;8.510;2023-05-10T01:19:55;30.73;;;19.03;;
26277;SDS011;14000;52.056;8.510;2023-05-10T01:28:00;24.60;;;16.53;;
26277;SDS011;14000;52.056;8.510;2023-05-10T01:33:26;35.20;;;21.00;;
26277;SDS011;14000;52.056;8.510;2023-05-10T01:38:57;27.33;;;17.73;;
26277;SDS011;14000;52.056;8.510;2023-05-10T01:41:40;24.83;;;16.47;;
26277;SDS011;14000;52.056;8.510;2023-05-10T01:44:17;24.87;;;16.00;;
26277;SDS011;14000;52.056;8.510;2023-05-10T01:46:51;21.93;;;14.97;;
26277;SDS011;14000;52.056;8.510;2023-05-10T01:49:26;20.77;;;14.00;;
26277;SDS011;14000;52.056;8.510;2023-05-10T01:51:56;25.20;;;16.37;;
26277;SDS011;14000;52.056;8.510;2023-05-10T01:54:26;29.40;;;17.77;;
26277;SDS011;14000;52.056;8.510;2023-05-10T01:56:59;20.63;;;13.27;;
26277;SDS011;14000;52.056;8.510;2023-05-10T01:59:29;21.27;;;13.63;;
26277;SDS011;14000;52.056;8.510;2023-05-10T02:01:57;19.53;;;13.37;;
26277;SDS011;14000;52.056;8.510;2023-05-10T02:04:24;17.10;;;11.00;;
26277;SDS011;14000;52.056;8.510;2023-05-10T02:06:51;23.60;;;14.50;;
26277;SDS011;14000;52.056;8.510;2023-05-10T02:09:19;16.77;;;11.20;;
26277;SDS011;14000;52.056;8.510;2023-05-10T02:11:46;16.17;;;10.50;;
26277;SDS011;14000;52.056;8.510;2023-05-10T02:14:13;15.03;;;9.73;;
26277;SDS011;14000;52.056;8.510;2023-05-10T02:16:40;13.80;;;7.97;;
26277;SDS011;14000;52.056;8.510;2023-05-10T02:19:07;12.87;;;7.17;;
26277;SDS011;14000;52.056;8.510;2023-05-10T02:21:35;11.17;;;6.53;;
26277;SDS011;14000;52.056;8.510;2023-05-10T02:24:01;14.03;;;7.33;;
26277;SDS011;14000;52.056;8.510;2023-05-10T02:26:29;11.80;;;6.53;;
26277;SDS011;14000;52.056;8.510;2023-05-10T02:28:56;11.70;;;6.13;;
26277;SDS011;14000;52.056;8.510;2023-05-10T02:31:23;10.53;;;6.00;;
26277;SDS011;14000;52.056;8.510;2023-05-10T02:33:49;12.23;;;6.70;;
26277;SDS011;14000;52.056;8.510;2023-05-10T02:36:16;11.10;;;6.87;;
26277;SDS011;14000;52.056;8.510;2023-05-10T02:38:42;14.67;;;8.07;;
26277;SDS011;14000;52.056;8.510;2023-05-10T02:41:09;14.00;;;8.80;;
26277;SDS011;14000;52.056;8.510;2023-05-10T02:43:36;17.37;;;10.80;;
26277;SDS011;14000;52.056;8.510;2023-05-10T02:46:04;17.40;;;11.33;;
26277;SDS011;14000;52.056;8.510;2023-05-10T02:48:29;21.33;;;13.10;;
26277;SDS011;14000;52.056;8.510;2023-05-10T02:50:56;21.13;;;13.53;;
26277;SDS011;14000;52.056;8.510;2023-05-10T02:53:31;21.30;;;14.20;;
26277;SDS011;14000;52.056;8.510;2023-05-10T02:55:58;30.33;;;17.67;;
26277;SDS011;14000;52.056;8.510;2023-05-10T02:58:28;25.83;;;15.83;;
26277;SDS011;14000;52.056;8.510;2023-05-10T03:00:54;24.53;;;15.90;;
26277;SDS011;14000;52.056;8.510;2023-05-10T03:03:19;23.87;;;15.60;;
26277;SDS011;14000;52.056;8.510;2023-05-10T03:05:46;30.77;;;18.63;;
26277;SDS011;14000;52.056;8.510;2023-05-10T03:08:11;28.27;;;17.07;;
26277;SDS011;14000;52.056;8.510;2023-05-10T03:10:50;28.80;;;17.53;;
26277;SDS011;14000;52.056;8.510;2023-05-10T03:13:40;26.30;;;16.07;;
26277;SDS011;14000;52.056;8.510;2023-05-10T03:16:29;25.67;;;16.23;;
26277;SDS011;14000;52.056;8.510;2023-05-10T03:19:22;24.50;;;14.80;;
26277;SDS011;14000;52.056;8.510;2023-05-10T03:21:52;22.03;;;14.60;;
26277;SDS011;14000;52.056;8.510;2023-05-10T03:24:21;27.97;;;15.63;;
26277;SDS011;14000;52.056;8.510;2023-05-10T03:26:48;20.97;;;12.93;;
26277;SDS011;14000;52.056;8.510;2023-05-10T03:29:16;20.07;;;12.60;;
26277;SDS011;14000;52.056;8.510;2023-05-10T03:31:42;21.93;;;13.03;;
26277;SDS011;14000;52.056;8.510;2023-05-10T03:34:08;20.57;;;13.27;;
26277;SDS011;14000;52.056;8.510;2023-05-10T03:36:33;21.17;;;12.07;;
26277;SDS011;14000;52.056;8.510;2023-05-10T03:38:59;22.23;;;12.40;;
26277;SDS011;14000;52.056;8.510;2023-05-10T03:41:25;20.43;;;12.53;;
26277;SDS011;14000;52.056;8.510;2023-05-10T03:43:51;17.87;;;11.43;;
26277;SDS011;14000;52.056;8.510;2023-05-10T03:46:16;17.17;;;10.63;;
26277;SDS011;14000;52.056;8.510;2023-05-10T03:48:42;21.17;;;12.33;;
26277;SDS011;14000;52.056;8.510;2023-05-10T03:51:08;22.30;;;12.00;;
26277;SDS011;14000;52.056;8.510;2023-05-10T03:53:33;18.27;;;10.00;;
26277;SDS011;14000;52.056;8.510;2023-05-10T03:55:59;16.77;;;9.60;;
26277;SDS011;14000;52.056;8.510;2023-05-10T03:58:24;16.47;;;9.40;;
26277;SDS011;14000;52.056;8.510;2023-05-10T04:00:50;19.20;;;10.57;;
26277;SDS011;14000;52.056;8.510;2023-05-10T04:03:17;14.37;;;8.60;;
26277;SDS011;14000;52.056;8.510;2023-05-10T04:05:42;17.83;;;10.30;;
26277;SDS011;14000;52.056;8.510;2023-05-10T04:08:08;14.63;;;8.53;;
26277;SDS011;14000;52.056;8.510;2023-05-10T04:10:34;15.37;;;9.00;;
26277;SDS011;14000;52.056;8.510;2023-05-10T04:12:59;18.37;;;10.13;;
26277;SDS011;14000;52.056;8.510;2023-05-10T04:15:25;12.17;;;6.33;;
26277;SDS011;14000;52.056;8.510;2023-05-10T04:17:51;10.53;;;5.20;;
26277;SDS011;14000;52.056;8.510;2023-05-10T04:20:16;10.93;;;5.10;;
26277;SDS011;14000;52.056;8.510;2023-05-10T04:22:42;7.87;;;3.50;;
26277;SDS011;14000;52.056;8.510;2023-05-10T04:25:08;6.90;;;2.90;;
26277;SDS011;14000;52.056;8.510;2023-05-10T04:27:34;7.40;;;3.20;;
26277;SDS011;14000;52.056;8.510;2023-05-10T04:29:59;10.70;;;3.80;;
26277;SDS011;14000;52.056;8.510;2023-05-10T04:32:25;8.17;;;3.00;;
26277;SDS011;14000;52.056;8.510;2023-05-10T04:34:51;7.00;;;2.67;;
26277;SDS011;14000;52.056;8.510;2023-05-10T04:37:16;9.87;;;3.20;;
26277;SDS011;14000;52.056;8.510;2023-05-10T04:39:42;11.43;;;3.70;;
26277;SDS011;14000;52.056;8.510;2023-05-10T04:42:08;10.13;;;3.90;;
26277;SDS011;14000;52.056;8.510;2023-05-10T04:44:34;7.67;;;3.20;;
26277;SDS011;14000;52.056;8.510;2023-05-10T04:47:00;6.87;;;2.83;;
26277;SDS011;14000;52.056;8.510;2023-05-10T04:49:27;6.77;;;2.53;;
26277;SDS011;14000;52.056;8.510;2023-05-10T04:51:53;9.17;;;3.13;;
26277;SDS011;14000;52.056;8.510;2023-05-10T04:54:18;7.73;;;2.77;;
26277;SDS011;14000;52.056;8.510;2023-05-10T04:56:44;7.40;;;2.40;;
26277;SDS011;14000;52.056;8.510;2023-05-10T04:59:09;7.60;;;2.90;;
26277;SDS011;14000;52.056;8.510;2023-05-10T05:01:35;7.77;;;3.60;;
26277;SDS011;14000;52.056;8.510;2023-05-10T05:04:01;8.33;;;3.90;;
26277;SDS011;14000;52.056;8.510;2023-05-10T05:06:26;9.60;;;4.90;;
26277;SDS011;14000;52.056;8.510;2023-05-10T05:08:52;9.63;;;5.30;;
26277;SDS011;14000;52.056;8.510;2023-05-10T05:11:18;11.43;;;6.60;;
26277;SDS011;14000;52.056;8.510;2023-05-10T05:13:43;10.07;;;5.73;;
26277;SDS011;14000;52.056;8.510;2023-05-10T05:16:09;15.10;;;7.77;;
26277;SDS011;14000;52.056;8.510;2023-05-10T05:18:35;11.37;;;6.20;;
26277;SDS011;14000;52.056;8.510;2023-05-10T05:21:01;10.83;;;6.03;;
26277;SDS011;14000;52.056;8.510;2023-05-10T05:23:27;11.47;;;6.33;;
26277;SDS011;14000;52.056;8.510;2023-05-10T05:25:52;11.23;;;5.87;;
26277;SDS011;14000;52.056;8.510;2023-05-10T05:28:21;14.30;;;7.53;;
26277;SDS011;14000;52.056;8.510;2023-05-10T05:30:47;10.83;;;6.20;;
26277;SDS011;14000;52.056;8.510;2023-05-10T05:33:15;13.83;;;6.60;;
26277;SDS011;14000;52.056;8.510;2023-05-10T05:35:41;12.07;;;6.53;;
26277;SDS011;14000;52.056;8.510;2023-05-10T05:38:09;11.73;;;6.43;;
26277;SDS011;14000;52.056;8.510;2023-05-10T05:40:35;13.70;;;7.30;;
26277;SDS011;14000;52.056;8.510;2023-05-10T05:43:00;14.87;;;8.37;;
26277;SDS011;14000;52.056;8.510;2023-05-10T05:45:26;12.60;;;7.33;;
26277;SDS011;14000;52.056;8.510;2023-05-10T05:47:51;14.70;;;7.67;;
26277;SDS011;14000;52.056;8.510;2023-05-10T05:50:17;13.60;;;7.23;;
26277;SDS011;14000;52.056;8.510;2023-05-10T05:52:42;13.47;;;7.00;;
26277;SDS011;14000;52.056;8.510;2023-05-10T05:55:08;11.40;;;6.47;;
26277;SDS011;14000;52.056;8.510;2023-05-10T05:57:34;12.77;;;7.00;;
26277;SDS011;14000;52.056;8.510;2023-05-10T05:59:59;12.47;;;6.50;;
26277;SDS011;14000;52.056;8.510;2023-05-10T06:02:25;16.53;;;8.83;;
26277;SDS011;14000;52.056;8.510;2023-05-10T06:04:50;12.13;;;7.00;;
26277;SDS011;14000;52.056;8.510;2023-05-10T06:07:16;12.37;;;6.67;;
26277;SDS011;14000;52.056;8.510;2023-05-10T06:09:41;15.43;;;7.60;;
26277;SDS011;14000;52.056;8.510;2023-05-10T06:12:07;14.57;;;7.50;;
26277;SDS011;14000;52.056;8.510;2023-05-10T06:14:33;13.57;;;7.20;;
26277;SDS011;14000;52.056;8.510;2023-05-10T06:16:58;12.13;;;6.17;;
26277;SDS011;14000;52.056;8.510;2023-05-10T06:19:24;13.23;;;6.33;;
26277;SDS011;14000;52.056;8.510;2023-05-10T06:21:51;14.53;;;6.90;;
26277;SDS011;14000;52.056;8.510;2023-05-10T06:24:16;16.53;;;8.23;;
26277;SDS011;14000;52.056;8.510;2023-05-10T06:26:42;13.33;;;7.03;;
26277;SDS011;14000;52.056;8.510;2023-05-10T06:29:08;14.17;;;7.03;;
26277;SDS011;14000;52.056;8.510;2023-05-10T06:31:33;13.80;;;6.90;;
26277;SDS011;14000;52.056;8.510;2023-05-10T06:33:59;19.53;;;9.10;;
26277;SDS011;14000;52.056;8.510;2023-05-10T06:36:25;18.23;;;8.57;;
26277;SDS011;14000;52.056;8.510;2023-05-10T06:38:51;11.83;;;6.13;;
26277;SDS011;14000;52.056;8.510;2023-05-10T06:41:17;13.73;;;6.77;;
26277;SDS011;14000;52.056;8.510;2023-05-10T06:43:42;12.60;;;5.87;;
26277;SDS011;14000;52.056;8.510;2023-05-10T06:46:08;11.87;;;6.27;;
26277;SDS011;14000;52.056;8.510;2023-05-10T06:48:34;17.50;;;7.40;;
26277;SDS011;14000;52.056;8.510;2023-05-10T06:50:59;13.63;;;7.20;;
26277;SDS011;14000;52.056;8.510;2023-05-10T06:53:25;12.17;;;6.87;;
26277;SDS011;14000;52.056;8.510;2023-05-10T06:55:50;12.67;;;6.70;;
26277;SDS011;14000;52.056;8.510;2023-05-10T06:58:16;15.30;;;7.37;;
26277;SDS011;14000;52.056;8.510;2023-05-10T07:00:42;17.07;;;8.73;;
26277;SDS011;14000;52.056;8.510;2023-05-10T07:03:09;18.80;;;9.10;;
26277;SDS011;14000;52.056;8.510;2023-05-10T07:05:35;19.10;;;9.43;;
26277;SDS011;14000;52.056;8.510;2023-05-10T07:08:01;13.43;;;7.07;;
26277;SDS011;14000;52.056;8.510;2023-05-10T07:10:27;12.90;;;7.70;;
26277;SDS011;14000;52.056;8.510;2023-05-10T07:12:52;14.80;;;7.80;;
26277;SDS011;14000;52.056;8.510;2023-05-10T07:15:18;18.23;;;8.80;;
26277;SDS011;14000;52.056;8.510;2023-05-10T07:17:43;17.10;;;8.63;;
26277;SDS011;14000;52.056;8.510;2023-05-10T07:20:10;18.40;;;10.47;;
26277;SDS011;14000;52.056;8.510;2023-05-10T07:22:36;22.50;;;10.40;;
26277;SDS011;14000;52.056;8.510;2023-05-10T07:25:02;19.63;;;10.83;;
26277;SDS011;14000;52.056;8.510;2023-05-10T07:27:27;19.53;;;10.53;;
26277;SDS011;14000;52.056;8.510;2023-05-10T07:29:53;20.03;;;11.07;;
26277;SDS011;14000;52.056;8.510;2023-05-10T07:32:19;23.87;;;11.97;;
26277;SDS011;14000;52.056;8.510;2023-05-10T07:34:45;23.67;;;11.57;;
26277;SDS011;14000;52.056;8.510;2023-05-10T07:37:11;27.23;;;12.80;;
26277;SDS011;14000;52.056;8.510;2023-05-10T07:39:36;21.37;;;11.80;;
26277;SDS011;14000;52.056;8.510;2023-05-10T07:42:02;27.10;;;13.83;;
26277;SDS011;14000;52.056;8.510;2023-05-10T07:44:27;31.73;;;14.80;;
26277;SDS011;14000;52.056;8.510;2023-05-10T07:46:53;23.27;;;13.67;;
26277;SDS011;14000;52.056;8.510;2023-05-10T07:49:19;38.67;;;20.43;;
26277;SDS011;14000;52.056;8.510;2023-05-10T07:51:44;27.60;;;14.70;;
26277;SDS011;14000;52.056;8.510;2023-05-10T07:54:10;20.20;;;12.57;;
26277;SDS011;14000;52.056;8.510;2023-05-10T07:56:36;25.10;;;13.07;;
26277;SDS011;14000;52.056;8.510;2023-05-10T07:59:02;23.83;;;12.97;;
26277;SDS011;14000;52.056;8.510;2023-05-10T08:01:32;27.50;;;15.13;;
26277;SDS011;14000;52.056;8.510;2023-05-10T08:03:59;26.43;;;14.70;;
26277;SDS011;14000;52.056;8.510;2023-05-10T08:06:25;29.17;;;15.83;;
26277;SDS011;14000;52.056;8.510;2023-05-10T08:08:55;28.90;;;16.60;;
26277;SDS011;14000;52.056;8.510;2023-05-10T08:11:20;32.87;;;18.07;;
26277;SDS011;14000;52.056;8.510;2023-05-10T08:13:47;28.93;;;16.50;;
26277;SDS011;14000;52.056;8.510;2023-05-10T08:16:14;41.53;;;19.77;;
26277;SDS011;14000;52.056;8.510;2023-05-10T08:18:40;49.87;;;22.40;;
26277;SDS011;14000;52.056;8.510;2023-05-10T08:21:06;38.27;;;19.13;;
26277;SDS011;14000;52.056;8.510;2023-05-10T08:23:32;31.43;;;17.00;;
26277;SDS011;14000;52.056;8.510;2023-05-10T08:25:57;35.33;;;18.93;;
26277;SDS011;14000;52.056;8.510;2023-05-10T08:28:23;35.53;;;18.93;;
26277;SDS011;14000;52.056;8.510;2023-05-10T08:30:49;32.73;;;17.80;;
26277;SDS011;14000;52.056;8.510;2023-05-10T08:33:15;36.43;;;19.13;;
26277;SDS011;14000;52.056;8.510;2023-05-10T08:35:42;35.67;;;18.87;;
26277;SDS011;14000;52.056;8.510;2023-05-10T08:38:08;33.33;;;18.53;;
26277;SDS011;14000;52.056;8.510;2023-05-10T08:40:34;36.90;;;19.20;;
26277;SDS011;14000;52.056;8.510;2023-05-10T08:43:05;33.13;;;18.83;;
26277;SDS011;14000;52.056;8.510;2023-05-10T08:45:33;38.30;;;19.07;;
26277;SDS011;14000;52.056;8.510;2023-05-10T08:48:03;37.90;;;19.80;;
26277;SDS011;14000;52.056;8.510;2023-05-10T08:50:31;29.93;;;16.80;;
26277;SDS011;14000;52.056;8.510;2023-05-10T08:52:57;31.23;;;17.60;;
26277;SDS011;14000;52.056;8.510;2023-05-10T08:55:25;39.20;;;18.33;;
26277;SDS011;14000;52.056;8.510;2023-05-10T08:57:51;33.63;;;19.07;;
26277;SDS011;14000;52.056;8.510;2023-05-10T09:00:17;34.17;;;19.07;;
26277;SDS011;14000;52.056;8.510;2023-05-10T09:02:43;33.93;;;19.17;;
26277;SDS011;14000;52.056;8.510;2023-05-10T09:05:10;35.87;;;18.40;;
26277;SDS011;14000;52.056;8.510;2023-05-10T09:07:37;34.83;;;18.63;;
26277;SDS011;14000;52.056;8.510;2023-05-10T09:10:02;38.50;;;19.33;;
26277;SDS011;14000;52.056;8.510;2023-05-10T09:12:29;34.67;;;18.77;;
26277;SDS011;14000;52.056;8.510;2023-05-10T09:14:55;36.07;;;18.60;;
26277;SDS011;14000;52.056;8.510;2023-05-10T09:17:24;46.53;;;21.97;;
26277;SDS011;14000;52.056;8.510;2023-05-10T09:20:01;37.67;;;20.03;;
26277;SDS011;14000;52.056;8.510;2023-05-10T09:22:31;36.50;;;19.30;;
26277;SDS011;14000;52.056;8.510;2023-05-10T09:27:33;40.53;;;20.70;;
26277;SDS011;14000;52.056;8.510;2023-05-10T09:29:59;42.33;;;20.40;;
26277;SDS011;14000;52.056;8.510;2023-05-10T09:32:59;46.20;;;23.63;;
26277;SDS011;14000;52.056;8.510;2023-05-10T09:35:18;41.73;;;20.60;;
26277;SDS011;14000;52.056;8.510;2023-05-10T09:37:46;44.80;;;21.73;;
26277;SDS011;14000;52.056;8.510;2023-05-10T09:40:17;42.93;;;21.20;;
26277;SDS011;14000;52.056;8.510;2023-05-10T09:42:52;46.40;;;22.03;;
26277;SDS011;14000;52.056;8.510;2023-05-10T09:45:22;39.97;;;21.77;;
26277;SDS011;14000;52.056;8.510;2023-05-10T09:47:49;41.50;;;22.87;;
26277;SDS011;14000;52.056;8.510;2023-05-10T09:50:15;40.93;;;21.40;;
26277;SDS011;14000;52.056;8.510;2023-05-10T09:55:13;33.23;;;19.40;;
26277;SDS011;14000;52.056;8.510;2023-05-10T09:57:39;33.97;;;19.97;;
26277;SDS011;14000;52.056;8.510;2023-05-10T10:00:05;33.07;;;18.47;;
26277;SDS011;14000;52.056;8.510;2023-05-10T10:02:31;31.87;;;18.60;;
26277;SDS011;14000;52.056;8.510;2023-05-10T10:04:58;30.43;;;17.67;;
26277;SDS011;14000;52.056;8.510;2023-05-10T10:07:26;36.90;;;19.60;;
26277;SDS011;14000;52.056;8.510;2023-05-10T10:09:53;34.13;;;19.07;;
26277;SDS011;14000;52.056;8.510;2023-05-10T10:12:18;31.43;;;18.30;;
26277;SDS011;14000;52.056;8.510;2023-05-10T10:14:46;27.20;;;16.43;;
26277;SDS011;14000;52.056;8.510;2023-05-10T10:17:13;27.40;;;15.10;;
26277;SDS011;14000;52.056;8.510;2023-05-10T10:19:38;30.83;;;15.83;;
26277;SDS011;14000;52.056;8.510;2023-05-10T10:22:05;28.00;;;16.70;;
26277;SDS011;14000;52.056;8.510;2023-05-10T10:24:30;29.57;;;16.23;;
26277;SDS011;14000;52.056;8.510;2023-05-10T10:26:57;25.00;;;13.80;;
26277;SDS011;14000;52.056;8.510;2023-05-10T10:29:32;23.47;;;13.43;;
26277;SDS011;14000;52.056;8.510;2023-05-10T10:32:12;29.57;;;15.33;;
26277;SDS011;14000;52.056;8.510;2023-05-10T10:35:02;24.83;;;14.17;;
26277;SDS011;14000;52.056;8.510;2023-05-10T10:37:44;27.33;;;15.53;;
26277;SDS011;14000;52.056;8.510;2023-05-10T10:40:24;25.03;;;14.20;;
26277;SDS011;14000;52.056;8.510;2023-05-10T10:42:54;23.90;;;13.17;;
26277;SDS011;14000;52.056;8.510;2023-05-10T10:45:21;23.40;;;13.63;;
26277;SDS011;14000;52.056;8.510;2023-05-10T10:47:47;21.00;;;12.03;;
26277;SDS011;14000;52.056;8.510;2023-05-10T10:50:14;19.50;;;11.20;;
26277;SDS011;14000;52.056;8.510;2023-05-10T10:52:44;21.10;;;12.37;;
26277;SDS011;14000;52.056;8.510;2023-05-10T10:55:17;22.30;;;12.23;;
26277;SDS011;14000;52.056;8.510;2023-05-10T10:57:48;20.73;;;11.70;;
26277;SDS011;14000;52.056;8.510;2023-05-10T11:00:24;25.20;;;12.53;;
26277;SDS011;14000;52.056;8.510;2023-05-10T11:02:53;20.90;;;11.33;;
26277;SDS011;14000;52.056;8.510;2023-05-10T11:05:23;18.63;;;9.77;;
26277;SDS011;14000;52.056;8.510;2023-05-10T11:07:56;20.27;;;10.50;;
26277;SDS011;14000;52.056;8.510;2023-05-10T11:10:24;18.27;;;10.07;;
26277;SDS011;14000;52.056;8.510;2023-05-10T11:12:58;18.63;;;10.10;;
26277;SDS011;14000;52.056;8.510;2023-05-10T11:15:29;18.57;;;9.33;;
26277;SDS011;14000;52.056;8.510;2023-05-10T11:17:59;21.53;;;10.67;;
26277;SDS011;14000;52.056;8.510;2023-05-10T11:20:28;16.00;;;8.93;;
26277;SDS011;14000;52.056;8.510;2023-05-10T11:23:13;18.17;;;9.47;;
26277;SDS011;14000;52.056;8.510;2023-05-10T11:25:43;16.50;;;7.87;;
26277;SDS011;14000;52.056;8.510;2023-05-10T11:28:13;24.57;;;9.87;;
26277;SDS011;14000;52.056;8.510;2023-05-10T11:30:39;37.90;;;17.97;;
26277;SDS011;14000;52.056;8.510;2023-05-10T11:33:06;15.83;;;6.47;;
26277;SDS011;14000;52.056;8.510;2023-05-10T11:35:36;15.87;;;7.33;;
26277;SDS011;14000;52.056;8.510;2023-05-10T11:38:05;13.63;;;5.50;;
26277;SDS011;14000;52.056;8.510;2023-05-10T11:40:35;13.60;;;5.73;;
26277;SDS011;14000;52.056;8.510;2023-05-10T11:43:01;13.83;;;6.97;;
26277;SDS011;14000;52.056;8.510;2023-05-10T11:45:27;14.83;;;6.20;;
26277;SDS011;14000;52.056;8.510;2023-05-10T11:47:55;13.20;;;6.50;;
26277;SDS011;14000;52.056;8.510;2023-05-10T11:50:21;14.50;;;7.90;;
26277;SDS011;14000;52.056;8.510;2023-05-10T11:52:50;20.30;;;9.60;;
26277;SDS011;14000;52.056;8.510;2023-05-10T11:55:17;16.20;;;8.57;;
26277;SDS011;14000;52.056;8.510;2023-05-10T11:57:42;17.63;;;8.07;;
26277;SDS011;14000;52.056;8.510;2023-05-10T12:00:11;16.93;;;8.97;;
26277;SDS011;14000;52.056;8.510;2023-05-10T12:02:39;18.20;;;9.47;;
26277;SDS011;14000;52.056;8.510;2023-05-10T12:05:05;18.83;;;9.07;;
26277;SDS011;14000;52.056;8.510;2023-05-10T12:07:32;17.67;;;8.40;;
26277;SDS011;14000;52.056;8.510;2023-05-10T12:10:05;14.73;;;7.73;;
26277;SDS011;14000;52.056;8.510;2023-05-10T12:12:35;20.77;;;8.77;;
26277;SDS011;14000;52.056;8.510;2023-05-10T12:15:06;18.27;;;8.07;;
26277;SDS011;14000;52.056;8.510;2023-05-10T12:17:44;17.00;;;8.83;;
26277;SDS011;14000;52.056;8.510;2023-05-10T12:20:13;17.23;;;8.90;;
26277;SDS011;14000;52.056;8.510;2023-05-10T12:22:43;18.20;;;9.33;;
26277;SDS011;14000;52.056;8.510;2023-05-10T12:25:14;19.87;;;9.57;;
26277;SDS011;14000;52.056;8.510;2023-05-10T12:27:40;18.27;;;8.83;;
26277;SDS011;14000;52.056;8.510;2023-05-10T12:30:06;18.20;;;8.77;;
26277;SDS011;14000;52.056;8.510;2023-05-10T12:32:39;20.63;;;9.07;;
26277;SDS011;14000;52.056;8.510;2023-05-10T12:35:09;20.60;;;9.40;;
26277;SDS011;14000;52.056;8.510;2023-05-10T12:37:34;18.50;;;9.40;;
26277;SDS011;14000;52.056;8.510;2023-05-10T12:40:05;18.00;;;9.47;;
26277;SDS011;14000;52.056;8.510;2023-05-10T12:42:31;21.33;;;10.73;;
26277;SDS011;14000;52.056;8.510;2023-05-10T12:44:57;18.87;;;10.10;;
26277;SDS011;14000;52.056;8.510;2023-05-10T12:47:23;20.50;;;11.07;;
26277;SDS011;14000;52.056;8.510;2023-05-10T12:49:48;23.07;;;10.83;;
26277;SDS011;14000;52.056;8.510;2023-05-10T12:52:14;25.33;;;10.30;;
26277;SDS011;14000;52.056;8.510;2023-05-10T12:54:40;24.43;;;12.37;;
26277;SDS011;14000;52.056;8.510;2023-05-10T12:57:05;21.00;;;11.00;;
26277;SDS011;14000;52.056;8.510;2023-05-10T12:59:31;26.50;;;14.07;;
26277;SDS011;14000;52.056;8.510;2023-05-10T13:01:57;20.33;;;11.77;;
26277;SDS011;14000;52.056;8.510;2023-05-10T13:04:23;24.40;;;11.70;;
26277;SDS011;14000;52.056;8.510;2023-05-10T13:06:48;21.47;;;12.13;;
26277;SDS011;14000;52.056;8.510;2023-05-10T13:09:14;22.37;;;11.53;;
26277;SDS011;14000;52.056;8.510;2023-05-10T13:11:40;20.80;;;11.13;;
26277;SDS011;14000;52.056;8.510;2023-05-10T13:14:06;20.47;;;10.90;;
26277;SDS011;14000;52.056;8.510;2023-05-10T13:16:31;21.33;;;11.40;;
26277;SDS011;14000;52.056;8.510;2023-05-10T13:18:57;19.37;;;10.57;;
26277;SDS011;14000;52.056;8.510;2023-05-10T13:21:23;21.67;;;11.47;;
26277;SDS011;14000;52.056;8.510;2023-05-10T13:23:50;22.03;;;11.53;;
26277;SDS011;14000;52.056;8.510;2023-05-10T13:26:15;23.10;;;12.47;;
26277;SDS011;14000;52.056;8.510;2023-05-10T13:28:41;27.97;;;12.40;;
26277;SDS011;14000;52.056;8.510;2023-05-10T13:31:07;22.90;;;12.93;;
26277;SDS011;14000;52.056;8.510;2023-05-10T13:33:32;28.47;;;15.03;;
26277;SDS011;14000;52.056;8.510;2023-05-10T13:35:58;29.10;;;15.27;;
26277;SDS011;14000;52.056;8.510;2023-05-10T13:38:23;32.50;;;16.80;;
26277;SDS011;14000;52.056;8.510;2023-05-10T13:40:49;34.90;;;18.00;;
26277;SDS011;14000;52.056;8.510;2023-05-10T13:43:17;34.80;;;17.40;;
26277;SDS011;14000;52.056;8.510;2023-05-10T13:45:43;35.50;;;17.20;;
26277;SDS011;14000;52.056;8.510;2023-05-10T13:48:09;36.17;;;18.77;;
26277;SDS011;14000;52.056;8.510;2023-05-10T13:50:34;43.60;;;21.70;;
26277;SDS011;14000;52.056;8.510;2023-05-10T13:53:00;37.77;;;20.60;;
26277;SDS011;14000;52.056;8.510;2023-05-10T13:55:25;45.17;;;21.57;;
26277;SDS011;14000;52.056;8.510;2023-05-10T13:57:51;52.10;;;24.03;;
26277;SDS011;14000;52.056;8.510;2023-05-10T14:00:16;52.00;;;24.80;;
26277;SDS011;14000;52.056;8.510;2023-05-10T14:02:42;51.20;;;24.27;;
26277;SDS011;14000;52.056;8.510;2023-05-10T14:05:08;43.63;;;23.43;;
26277;SDS011;14000;52.056;8.510;2023-05-10T14:07:34;53.17;;;26.53;;
26277;SDS011;14000;52.056;8.510;2023-05-10T14:09:59;42.43;;;21.80;;
26277;SDS011;14000;52.056;8.510;2023-05-10T14:12:25;52.97;;;23.93;;
26277;SDS011;14000;52.056;8.510;2023-05-10T14:14:52;44.17;;;23.07;;
26277;SDS011;14000;52.056;8.510;2023-05-10T14:17:18;50.43;;;24.63;;
26277;SDS011;14000;52.056;8.510;2023-05-10T14:19:44;45.27;;;23.73;;
26277;SDS011;14000;52.056;8.510;2023-05-10T14:22:09;46.47;;;23.53;;
26277;SDS011;14000;52.056;8.510;2023-05-10T14:24:35;59.63;;;28.70;;
26277;SDS011;14000;52.056;8.510;2023-05-10T14:27:01;53.60;;;26.23;;
26277;SDS011;14000;52.056;8.510;2023-05-10T14:29:26;60.73;;;29.07;;
26277;SDS011;14000;52.056;8.510;2023-05-10T14:31:52;62.17;;;29.07;;
26277;SDS011;14000;52.056;8.510;2023-05-10T14:34:18;65.37;;;29.77;;
26277;SDS011;14000;52.056;8.510;2023-05-10T14:36:43;57.93;;;28.47;;
26277;SDS011;14000;52.056;8.510;2023-05-10T14:39:09;47.90;;;25.27;;
26277;SDS011;14000;52.056;8.510;2023-05-10T14:41:35;56.13;;;27.73;;
26277;SDS011;14000;52.056;8.510;2023-05-10T14:44:01;49.87;;;27.27;;
26277;SDS011;14000;52.056;8.510;2023-05-10T14:46:28;70.80;;;37.43;;